sensor_id;sensor_type;location;lat;lon;timestamp;P1;durP1;ratioP1;P2;durP2;ratioP2
76119;SDS011;64852;48.092;-1.640;2023-09-19T00:00:19;2.30;;;2.20;;
76119;SDS011;64852;48.092;-1.640;2023-09-19T00:02:54;2.35;;;2.25;;
76119;SDS011;64852;48.092;-1.640;2023-09-19T00:05:24;2.65;;;2.55;;
76119;SDS011;64852;48.092;-1.640;2023-09-19T00:08:00;3.67;;;3.47;;
76119;SDS011;64852;48.092;-1.640;2023-09-19T00:10:26;3.78;;;3.58;;
76119;SDS011;64852;48.092;-1.640;2023-09-19T00:12:56;3.85;;;3.65;;
76119;SDS011;64852;48.092;-1.640;2023-09-19T00:15:24;4.35;;;4.15;;
76119;SDS011;64852;48.092;-1.640;2023-09-19T00:17:51;2.85;;;2.75;;
76119;SDS011;64852;48.092;-1.640;2023-09-19T00:20:17;2.75;;;2.65;;
76119;SDS011;64852;48.092;-1.640;2023-09-19T00:22:43;3.83;;;3.63;;
76119;SDS011;64852;48.092;-1.640;2023-09-19T00:27:37;4.10;;;3.78;;
76119;SDS011;64852;48.092;-1.640;2023-09-19T00:30:11;4.00;;;3.80;;
76119;SDS011;64852;48.092;-1.640;2023-09-19T00:32:49;6.10;;;5.53;;
76119;SDS011;64852;48.092;-1.640;2023-09-19T00:35:20;6.13;;;5.82;;
76119;SDS011;64852;48.092;-1.640;2023-09-19T00:37:52;5.35;;;5.05;;
76119;SDS011;64852;48.092;-1.640;2023-09-19T00:40:18;5.00;;;4.70;;
76119;SDS011;64852;48.092;-1.640;2023-09-19T00:42:46;5.63;;;5.32;;
76119;SDS011;64852;48.092;-1.640;2023-09-19T00:45:14;3.90;;;3.70;;
76119;SDS011;64852;48.092;-1.640;2023-09-19T00:47:42;4.78;;;4.47;;
76119;SDS011;64852;48.092;-1.640;2023-09-19T00:50:11;5.10;;;4.80;;
76119;SDS011;64852;48.092;-1.640;2023-09-19T01:17:34;3.05;;;2.95;;
76119;SDS011;64852;48.092;-1.640;2023-09-19T01:28:20;3.45;;;3.25;;
76119;SDS011;64852;48.092;-1.640;2023-09-19T01:49:20;4.93;;;4.65;;
76119;SDS011;64852;48.092;-1.640;2023-09-19T01:51:28;5.20;;;4.90;;
76119;SDS011;64852;48.092;-1.640;2023-09-19T01:56:49;5.40;;;5.10;;
76119;SDS011;64852;48.092;-1.640;2023-09-19T01:59:21;5.65;;;5.35;;
76119;SDS011;64852;48.092;-1.640;2023-09-19T02:01:56;6.00;;;5.70;;
76119;SDS011;64852;48.092;-1.640;2023-09-19T02:04:22;5.82;;;5.53;;
76119;SDS011;64852;48.092;-1.640;2023-09-19T02:14:06;5.15;;;4.85;;
76119;SDS011;64852;48.092;-1.640;2023-09-19T02:16:33;8.02;;;7.53;;
76119;SDS011;64852;48.092;-1.640;2023-09-19T02:23:57;6.35;;;6.05;;
76119;SDS011;64852;48.092;-1.640;2023-09-19T02:26:23;6.32;;;6.03;;
76119;SDS011;64852;48.092;-1.640;2023-09-19T02:28:49;6.07;;;5.77;;
76119;SDS011;64852;48.092;-1.640;2023-09-19T02:36:07;5.80;;;5.50;;
76119;SDS011;64852;48.092;-1.640;2023-09-19T02:38:33;5.95;;;5.65;;
76119;SDS011;64852;48.092;-1.640;2023-09-19T02:55:37;5.25;;;4.95;;
76119;SDS011;64852;48.092;-1.640;2023-09-19T02:58:05;7.40;;;7.00;;
76119;SDS011;64852;48.092;-1.640;2023-09-19T03:12:46;5.90;;;5.60;;
76119;SDS011;64852;48.092;-1.640;2023-09-19T03:20:15;5.90;;;5.60;;
76119;SDS011;64852;48.092;-1.640;2023-09-19T03:39:51;6.00;;;5.70;;
76119;SDS011;64852;48.092;-1.640;2023-09-19T03:42:16;6.80;;;6.47;;
76119;SDS011;64852;48.092;-1.640;2023-09-19T03:47:08;6.47;;;6.18;;
76119;SDS011;64852;48.092;-1.640;2023-09-19T03:51:59;7.20;;;6.80;;
76119;SDS011;64852;48.092;-1.640;2023-09-19T03:54:25;10.70;;;7.35;;
76119;SDS011;64852;48.092;-1.640;2023-09-19T03:56:50;7.53;;;7.10;;
76119;SDS011;64852;48.092;-1.640;2023-09-19T03:59:16;7.50;;;7.10;;
76119;SDS011;64852;48.092;-1.640;2023-09-19T04:06:34;7.22;;;6.82;;
76119;SDS011;64852;48.092;-1.640;2023-09-19T04:09:01;7.53;;;7.13;;
76119;SDS011;64852;48.092;-1.640;2023-09-19T04:13:58;8.20;;;7.70;;
76119;SDS011;64852;48.092;-1.640;2023-09-19T04:23:40;8.45;;;7.95;;
76119;SDS011;64852;48.092;-1.640;2023-09-19T04:35:52;8.82;;;8.35;;
76119;SDS011;64852;48.092;-1.640;2023-09-19T04:38:18;10.13;;;9.40;;
76119;SDS011;64852;48.092;-1.640;2023-09-19T04:43:10;9.00;;;8.50;;
76119;SDS011;64852;48.092;-1.640;2023-09-19T04:48:03;9.25;;;8.75;;
76119;SDS011;64852;48.092;-1.640;2023-09-19T04:52:54;9.10;;;8.60;;
76119;SDS011;64852;48.092;-1.640;2023-09-19T04:55:20;9.00;;;8.50;;
76119;SDS011;64852;48.092;-1.640;2023-09-19T04:57:49;10.63;;;9.93;;
76119;SDS011;64852;48.092;-1.640;2023-09-19T05:00:17;10.15;;;9.65;;
76119;SDS011;64852;48.092;-1.640;2023-09-19T05:02:44;9.93;;;9.43;;
76119;SDS011;64852;48.092;-1.640;2023-09-19T05:05:11;10.20;;;9.70;;
76119;SDS011;64852;48.092;-1.640;2023-09-19T05:07:37;9.95;;;9.45;;
76119;SDS011;64852;48.092;-1.640;2023-09-19T05:10:04;10.80;;;10.20;;
76119;SDS011;64852;48.092;-1.640;2023-09-19T05:12:32;11.10;;;10.50;;
76119;SDS011;64852;48.092;-1.640;2023-09-19T05:15:01;9.95;;;9.45;;
76119;SDS011;64852;48.092;-1.640;2023-09-19T05:17:28;11.30;;;10.70;;
76119;SDS011;64852;48.092;-1.640;2023-09-19T05:19:54;10.90;;;10.30;;
76119;SDS011;64852;48.092;-1.640;2023-09-19T05:22:19;18.27;;;11.27;;
76119;SDS011;64852;48.092;-1.640;2023-09-19T05:24:45;12.63;;;11.53;;
76119;SDS011;64852;48.092;-1.640;2023-09-19T05:27:16;18.55;;;9.90;;
76119;SDS011;64852;48.092;-1.640;2023-09-19T05:29:43;10.98;;;10.38;;
76119;SDS011;64852;48.092;-1.640;2023-09-19T05:32:09;11.48;;;10.77;;
76119;SDS011;64852;48.092;-1.640;2023-09-19T05:34:35;11.18;;;10.57;;
76119;SDS011;64852;48.092;-1.640;2023-09-19T05:37:01;11.82;;;11.23;;
76119;SDS011;64852;48.092;-1.640;2023-09-19T05:39:27;11.27;;;10.68;;
76119;SDS011;64852;48.092;-1.640;2023-09-19T05:41:53;10.97;;;10.37;;
76119;SDS011;64852;48.092;-1.640;2023-09-19T05:46:45;11.63;;;11.02;;
76119;SDS011;64852;48.092;-1.640;2023-09-19T05:49:13;12.40;;;11.60;;
76119;SDS011;64852;48.092;-1.640;2023-09-19T05:51:39;12.30;;;11.70;;
76119;SDS011;64852;48.092;-1.640;2023-09-19T05:54:05;12.75;;;12.05;;
76119;SDS011;64852;48.092;-1.640;2023-09-19T05:56:30;12.93;;;12.23;;
76119;SDS011;64852;48.092;-1.640;2023-09-19T05:58:56;12.77;;;12.07;;
76119;SDS011;64852;48.092;-1.640;2023-09-19T06:01:22;13.60;;;12.87;;
76119;SDS011;64852;48.092;-1.640;2023-09-19T06:03:47;12.77;;;12.07;;
76119;SDS011;64852;48.092;-1.640;2023-09-19T06:06:13;12.80;;;12.10;;
76119;SDS011;64852;48.092;-1.640;2023-09-19T06:08:39;12.65;;;12.00;;
76119;SDS011;64852;48.092;-1.640;2023-09-19T06:11:05;12.55;;;11.93;;
76119;SDS011;64852;48.092;-1.640;2023-09-19T06:15:59;12.68;;;12.00;;
76119;SDS011;64852;48.092;-1.640;2023-09-19T06:18:30;14.02;;;13.02;;
76119;SDS011;64852;48.092;-1.640;2023-09-19T06:21:01;13.55;;;12.85;;
76119;SDS011;64852;48.092;-1.640;2023-09-19T06:23:32;15.57;;;14.68;;
76119;SDS011;64852;48.092;-1.640;2023-09-19T06:25:59;14.50;;;13.60;;
76119;SDS011;64852;48.092;-1.640;2023-09-19T06:28:24;14.80;;;13.90;;
76119;SDS011;64852;48.092;-1.640;2023-09-19T06:52:55;12.57;;;11.88;;
76119;SDS011;64852;48.092;-1.640;2023-09-19T07:00:19;12.38;;;11.77;;
76119;SDS011;64852;48.092;-1.640;2023-09-19T07:12:40;12.60;;;11.95;;
76119;SDS011;64852;48.092;-1.640;2023-09-19T07:17:33;14.35;;;13.50;;
76119;SDS011;64852;48.092;-1.640;2023-09-19T07:19:59;17.33;;;13.07;;
76119;SDS011;64852;48.092;-1.640;2023-09-19T09:27:45;10.85;;;10.27;;
76119;SDS011;64852;48.092;-1.640;2023-09-19T09:57:00;11.10;;;10.50;;
76119;SDS011;64852;48.092;-1.640;2023-09-19T10:02:27;9.88;;;9.32;;
76119;SDS011;64852;48.092;-1.640;2023-09-19T10:04:57;8.23;;;7.82;;
76119;SDS011;64852;48.092;-1.640;2023-09-19T10:07:31;8.40;;;7.90;;
76119;SDS011;64852;48.092;-1.640;2023-09-19T10:10:15;7.55;;;7.15;;
76119;SDS011;64852;48.092;-1.640;2023-09-19T10:12:55;7.40;;;7.00;;
76119;SDS011;64852;48.092;-1.640;2023-09-19T10:15:27;8.60;;;8.00;;
76119;SDS011;64852;48.092;-1.640;2023-09-19T10:17:57;6.93;;;6.55;;
76119;SDS011;64852;48.092;-1.640;2023-09-19T10:20:36;6.72;;;6.43;;
76119;SDS011;64852;48.092;-1.640;2023-09-19T10:23:07;7.63;;;7.15;;
76119;SDS011;64852;48.092;-1.640;2023-09-19T10:25:37;7.20;;;6.80;;
76119;SDS011;64852;48.092;-1.640;2023-09-19T10:28:13;6.13;;;5.82;;
76119;SDS011;64852;48.092;-1.640;2023-09-19T10:30:42;6.05;;;5.50;;
76119;SDS011;64852;48.092;-1.640;2023-09-19T10:33:10;5.85;;;5.55;;
76119;SDS011;64852;48.092;-1.640;2023-09-19T10:35:44;6.20;;;5.53;;
76119;SDS011;64852;48.092;-1.640;2023-09-19T10:38:11;5.53;;;5.22;;
76119;SDS011;64852;48.092;-1.640;2023-09-19T10:40:44;5.70;;;5.40;;
76119;SDS011;64852;48.092;-1.640;2023-09-19T10:43:15;5.00;;;4.70;;
76119;SDS011;64852;48.092;-1.640;2023-09-19T10:45:44;5.18;;;4.88;;
76119;SDS011;64852;48.092;-1.640;2023-09-19T10:48:11;5.57;;;5.28;;
76119;SDS011;64852;48.092;-1.640;2023-09-19T10:51:21;5.13;;;4.82;;
76119;SDS011;64852;48.092;-1.640;2023-09-19T10:53:29;4.45;;;4.25;;
76119;SDS011;64852;48.092;-1.640;2023-09-19T10:56:07;4.15;;;3.95;;
76119;SDS011;64852;48.092;-1.640;2023-09-19T10:58:42;3.75;;;3.55;;
76119;SDS011;64852;48.092;-1.640;2023-09-19T11:01:09;4.30;;;4.10;;
76119;SDS011;64852;48.092;-1.640;2023-09-19T11:03:37;3.70;;;3.50;;
76119;SDS011;64852;48.092;-1.640;2023-09-19T11:11:47;7.38;;;4.22;;
76119;SDS011;64852;48.092;-1.640;2023-09-19T11:28:41;3.22;;;3.05;;
76119;SDS011;64852;48.092;-1.640;2023-09-19T11:30:48;3.95;;;3.75;;
76119;SDS011;64852;48.092;-1.640;2023-09-19T11:33:18;4.32;;;3.40;;
76119;SDS011;64852;48.092;-1.640;2023-09-19T11:36:09;4.15;;;3.85;;
76119;SDS011;64852;48.092;-1.640;2023-09-19T11:46:28;3.33;;;3.15;;
76119;SDS011;64852;48.092;-1.640;2023-09-19T11:49:13;3.00;;;2.90;;
76119;SDS011;64852;48.092;-1.640;2023-09-19T11:51:45;2.70;;;2.60;;
76119;SDS011;64852;48.092;-1.640;2023-09-19T11:54:12;2.65;;;2.55;;
76119;SDS011;64852;48.092;-1.640;2023-09-19T11:56:50;2.60;;;2.50;;
76119;SDS011;64852;48.092;-1.640;2023-09-19T11:59:22;2.45;;;2.35;;
76119;SDS011;64852;48.092;-1.640;2023-09-19T12:01:52;2.72;;;2.63;;
76119;SDS011;64852;48.092;-1.640;2023-09-19T12:04:38;3.03;;;2.78;;
76119;SDS011;64852;48.092;-1.640;2023-09-19T12:07:14;2.20;;;2.10;;
76119;SDS011;64852;48.092;-1.640;2023-09-19T12:09:43;11.57;;;3.13;;
76119;SDS011;64852;48.092;-1.640;2023-09-19T12:12:23;2.38;;;2.28;;
76119;SDS011;64852;48.092;-1.640;2023-09-19T12:14:52;8.25;;;2.38;;
76119;SDS011;64852;48.092;-1.640;2023-09-19T12:17:19;1.60;;;1.60;;
76119;SDS011;64852;48.092;-1.640;2023-09-19T12:19:55;1.80;;;1.70;;
76119;SDS011;64852;48.092;-1.640;2023-09-19T12:22:21;1.60;;;1.52;;
76119;SDS011;64852;48.092;-1.640;2023-09-19T12:24:47;2.08;;;1.98;;
76119;SDS011;64852;48.092;-1.640;2023-09-19T12:27:13;2.10;;;2.00;;
76119;SDS011;64852;48.092;-1.640;2023-09-19T12:29:43;1.70;;;1.60;;
76119;SDS011;64852;48.092;-1.640;2023-09-19T12:32:10;1.90;;;1.80;;
76119;SDS011;64852;48.092;-1.640;2023-09-19T12:34:35;1.80;;;1.70;;
76119;SDS011;64852;48.092;-1.640;2023-09-19T12:39:51;7.25;;;2.35;;
76119;SDS011;64852;48.092;-1.640;2023-09-19T12:42:23;1.60;;;1.60;;
76119;SDS011;64852;48.092;-1.640;2023-09-19T12:44:53;1.85;;;1.75;;
76119;SDS011;64852;48.092;-1.640;2023-09-19T12:47:22;2.17;;;1.90;;
76119;SDS011;64852;48.092;-1.640;2023-09-19T12:50:05;1.73;;;1.63;;
76119;SDS011;64852;48.092;-1.640;2023-09-19T12:52:56;6.03;;;2.15;;
76119;SDS011;64852;48.092;-1.640;2023-09-19T12:57:58;1.63;;;1.52;;
76119;SDS011;64852;48.092;-1.640;2023-09-19T13:00:34;1.30;;;1.30;;
76119;SDS011;64852;48.092;-1.640;2023-09-19T13:05:47;1.58;;;1.48;;
76119;SDS011;64852;48.092;-1.640;2023-09-19T13:13:26;1.90;;;1.80;;
76119;SDS011;64852;48.092;-1.640;2023-09-19T13:15:53;1.27;;;1.27;;
76119;SDS011;64852;48.092;-1.640;2023-09-19T13:18:19;1.60;;;1.50;;
76119;SDS011;64852;48.092;-1.640;2023-09-19T13:21:04;1.98;;;1.77;;
76119;SDS011;64852;48.092;-1.640;2023-09-19T13:26:14;3.00;;;1.95;;
76119;SDS011;64852;48.092;-1.640;2023-09-19T13:31:05;1.30;;;1.30;;
76119;SDS011;64852;48.092;-1.640;2023-09-19T13:33:31;3.17;;;2.63;;
76119;SDS011;64852;48.092;-1.640;2023-09-19T13:38:23;1.30;;;1.30;;
76119;SDS011;64852;48.092;-1.640;2023-09-19T13:40:48;1.48;;;1.48;;
76119;SDS011;64852;48.092;-1.640;2023-09-19T13:58:02;1.98;;;1.65;;
76119;SDS011;64852;48.092;-1.640;2023-09-19T14:00:31;1.10;;;1.10;;
76119;SDS011;64852;48.092;-1.640;2023-09-19T14:02:59;1.90;;;1.75;;
76119;SDS011;64852;48.092;-1.640;2023-09-19T14:17:37;1.13;;;1.13;;
76119;SDS011;64852;48.092;-1.640;2023-09-19T14:27:24;1.15;;;1.15;;
76119;SDS011;64852;48.092;-1.640;2023-09-19T14:29:50;1.63;;;1.53;;
76119;SDS011;64852;48.092;-1.640;2023-09-19T14:32:16;1.23;;;1.17;;
76119;SDS011;64852;48.092;-1.640;2023-09-19T14:37:09;1.88;;;1.20;;
76119;SDS011;64852;48.092;-1.640;2023-09-19T14:39:36;1.13;;;1.13;;
76119;SDS011;64852;48.092;-1.640;2023-09-19T14:42:03;1.40;;;1.40;;
76119;SDS011;64852;48.092;-1.640;2023-09-19T14:44:29;1.77;;;1.30;;
76119;SDS011;64852;48.092;-1.640;2023-09-19T14:46:55;1.00;;;1.00;;
76119;SDS011;64852;48.092;-1.640;2023-09-19T14:49:21;1.40;;;1.10;;
76119;SDS011;64852;48.092;-1.640;2023-09-19T14:51:46;2.40;;;1.33;;
76119;SDS011;64852;48.092;-1.640;2023-09-19T14:56:42;1.75;;;1.65;;
76119;SDS011;64852;48.092;-1.640;2023-09-19T15:06:28;1.52;;;1.45;;
76119;SDS011;64852;48.092;-1.640;2023-09-19T15:08:55;0.90;;;0.90;;
76119;SDS011;64852;48.092;-1.640;2023-09-19T15:18:42;0.90;;;0.90;;
76119;SDS011;64852;48.092;-1.640;2023-09-19T15:21:12;0.95;;;0.95;;
76119;SDS011;64852;48.092;-1.640;2023-09-19T15:26:05;1.23;;;1.23;;
76119;SDS011;64852;48.092;-1.640;2023-09-19T15:33:25;1.00;;;1.00;;
76119;SDS011;64852;48.092;-1.640;2023-09-19T15:36:00;1.40;;;1.30;;
76119;SDS011;64852;48.092;-1.640;2023-09-19T15:38:27;2.00;;;1.40;;
76119;SDS011;64852;48.092;-1.640;2023-09-19T15:40:53;2.85;;;1.35;;
76119;SDS011;64852;48.092;-1.640;2023-09-19T15:43:19;2.30;;;1.30;;
76119;SDS011;64852;48.092;-1.640;2023-09-19T15:45:46;1.50;;;1.40;;
76119;SDS011;64852;48.092;-1.640;2023-09-19T15:58:05;0.90;;;0.90;;
76119;SDS011;64852;48.092;-1.640;2023-09-19T16:00:32;1.10;;;1.10;;
76119;SDS011;64852;48.092;-1.640;2023-09-19T16:03:01;8.98;;;1.08;;
76119;SDS011;64852;48.092;-1.640;2023-09-19T16:05:27;0.90;;;0.90;;
76119;SDS011;64852;48.092;-1.640;2023-09-19T16:08:02;0.90;;;0.90;;
76119;SDS011;64852;48.092;-1.640;2023-09-19T16:10:29;0.80;;;0.80;;
76119;SDS011;64852;48.092;-1.640;2023-09-19T16:22:38;2.25;;;1.58;;
76119;SDS011;64852;48.092;-1.640;2023-09-19T16:25:05;0.93;;;0.93;;
76119;SDS011;64852;48.092;-1.640;2023-09-19T16:32:22;1.45;;;1.35;;
76119;SDS011;64852;48.092;-1.640;2023-09-19T16:34:47;2.07;;;1.47;;
76119;SDS011;64852;48.092;-1.640;2023-09-19T16:37:13;1.20;;;1.10;;
76119;SDS011;64852;48.092;-1.640;2023-09-19T16:42:08;1.00;;;1.00;;
76119;SDS011;64852;48.092;-1.640;2023-09-19T16:44:35;1.63;;;1.52;;
76119;SDS011;64852;48.092;-1.640;2023-09-19T16:51:55;1.45;;;1.35;;
76119;SDS011;64852;48.092;-1.640;2023-09-19T16:56:49;0.80;;;0.80;;
76119;SDS011;64852;48.092;-1.640;2023-09-19T16:59:16;1.13;;;1.13;;
76119;SDS011;64852;48.092;-1.640;2023-09-19T17:01:44;1.45;;;1.35;;
76119;SDS011;64852;48.092;-1.640;2023-09-19T17:04:10;0.85;;;0.85;;
76119;SDS011;64852;48.092;-1.640;2023-09-19T17:06:37;0.90;;;0.90;;
76119;SDS011;64852;48.092;-1.640;2023-09-19T17:09:04;2.15;;;2.05;;
76119;SDS011;64852;48.092;-1.640;2023-09-19T17:13:56;0.80;;;0.80;;
76119;SDS011;64852;48.092;-1.640;2023-09-19T17:16:22;1.80;;;1.70;;
76119;SDS011;64852;48.092;-1.640;2023-09-19T17:26:10;0.70;;;0.70;;
76119;SDS011;64852;48.092;-1.640;2023-09-19T17:28:39;1.10;;;1.10;;
76119;SDS011;64852;48.092;-1.640;2023-09-19T17:33:39;0.63;;;0.63;;
76119;SDS011;64852;48.092;-1.640;2023-09-19T17:38:42;0.80;;;0.80;;
76119;SDS011;64852;48.092;-1.640;2023-09-19T17:41:08;0.98;;;0.98;;
76119;SDS011;64852;48.092;-1.640;2023-09-19T17:43:35;2.25;;;1.30;;
76119;SDS011;64852;48.092;-1.640;2023-09-19T17:48:38;0.70;;;0.70;;
76119;SDS011;64852;48.092;-1.640;2023-09-19T17:56:08;0.82;;;0.82;;
76119;SDS011;64852;48.092;-1.640;2023-09-19T17:58:38;1.00;;;1.00;;
76119;SDS011;64852;48.092;-1.640;2023-09-19T18:01:14;1.20;;;1.20;;
76119;SDS011;64852;48.092;-1.640;2023-09-19T18:03:43;4.43;;;2.13;;
76119;SDS011;64852;48.092;-1.640;2023-09-19T18:06:09;3.60;;;1.50;;
76119;SDS011;64852;48.092;-1.640;2023-09-19T18:08:36;1.10;;;1.10;;
76119;SDS011;64852;48.092;-1.640;2023-09-19T18:11:03;2.80;;;1.40;;
76119;SDS011;64852;48.092;-1.640;2023-09-19T18:13:34;1.17;;;1.17;;
76119;SDS011;64852;48.092;-1.640;2023-09-19T18:16:05;1.15;;;1.15;;
76119;SDS011;64852;48.092;-1.640;2023-09-19T18:18:32;1.13;;;1.13;;
76119;SDS011;64852;48.092;-1.640;2023-09-19T18:20:59;3.60;;;1.20;;
76119;SDS011;64852;48.092;-1.640;2023-09-19T18:23:26;1.48;;;1.38;;
76119;SDS011;64852;48.092;-1.640;2023-09-19T18:25:55;2.40;;;1.55;;
76119;SDS011;64852;48.092;-1.640;2023-09-19T18:28:22;3.60;;;1.60;;
76119;SDS011;64852;48.092;-1.640;2023-09-19T18:30:47;1.20;;;1.20;;
76119;SDS011;64852;48.092;-1.640;2023-09-19T18:33:13;1.57;;;1.47;;
76119;SDS011;64852;48.092;-1.640;2023-09-19T18:35:39;1.70;;;1.60;;
76119;SDS011;64852;48.092;-1.640;2023-09-19T18:38:06;1.30;;;1.30;;
76119;SDS011;64852;48.092;-1.640;2023-09-19T18:40:32;1.30;;;1.25;;
76119;SDS011;64852;48.092;-1.640;2023-09-19T18:42:58;1.60;;;1.50;;
76119;SDS011;64852;48.092;-1.640;2023-09-19T18:45:24;1.55;;;1.45;;
76119;SDS011;64852;48.092;-1.640;2023-09-19T18:47:50;2.67;;;1.10;;
76119;SDS011;64852;48.092;-1.640;2023-09-19T18:50:17;2.20;;;1.40;;
76119;SDS011;64852;48.092;-1.640;2023-09-19T18:52:43;1.50;;;1.40;;
76119;SDS011;64852;48.092;-1.640;2023-09-19T18:55:09;1.45;;;1.23;;
76119;SDS011;64852;48.092;-1.640;2023-09-19T18:57:36;4.40;;;1.23;;
76119;SDS011;64852;48.092;-1.640;2023-09-19T19:00:05;2.10;;;1.50;;
76119;SDS011;64852;48.092;-1.640;2023-09-19T19:02:35;1.50;;;1.40;;
76119;SDS011;64852;48.092;-1.640;2023-09-19T19:05:04;1.45;;;1.35;;
76119;SDS011;64852;48.092;-1.640;2023-09-19T19:07:30;1.30;;;1.23;;
76119;SDS011;64852;48.092;-1.640;2023-09-19T19:09:56;1.30;;;1.30;;
76119;SDS011;64852;48.092;-1.640;2023-09-19T19:12:23;1.65;;;1.55;;
76119;SDS011;64852;48.092;-1.640;2023-09-19T19:14:50;1.40;;;1.40;;
76119;SDS011;64852;48.092;-1.640;2023-09-19T19:17:16;1.30;;;1.30;;
76119;SDS011;64852;48.092;-1.640;2023-09-19T19:19:42;1.50;;;1.40;;
76119;SDS011;64852;48.092;-1.640;2023-09-19T19:22:08;1.70;;;1.60;;
76119;SDS011;64852;48.092;-1.640;2023-09-19T19:24:35;1.60;;;1.50;;
76119;SDS011;64852;48.092;-1.640;2023-09-19T19:27:01;1.83;;;1.73;;
76119;SDS011;64852;48.092;-1.640;2023-09-19T19:29:27;3.50;;;2.00;;
76119;SDS011;64852;48.092;-1.640;2023-09-19T19:31:53;1.70;;;1.60;;
76119;SDS011;64852;48.092;-1.640;2023-09-19T19:34:19;1.05;;;1.05;;
76119;SDS011;64852;48.092;-1.640;2023-09-19T19:36:45;2.40;;;2.30;;
76119;SDS011;64852;48.092;-1.640;2023-09-19T19:39:11;2.30;;;2.20;;
76119;SDS011;64852;48.092;-1.640;2023-09-19T19:41:40;2.60;;;2.50;;
76119;SDS011;64852;48.092;-1.640;2023-09-19T19:44:08;3.40;;;3.10;;
76119;SDS011;64852;48.092;-1.640;2023-09-19T19:46:33;3.58;;;3.28;;
76119;SDS011;64852;48.092;-1.640;2023-09-19T19:48:59;4.03;;;2.87;;
76119;SDS011;64852;48.092;-1.640;2023-09-19T19:51:25;3.10;;;2.80;;
76119;SDS011;64852;48.092;-1.640;2023-09-19T19:53:51;2.83;;;2.70;;
76119;SDS011;64852;48.092;-1.640;2023-09-19T19:56:19;3.20;;;3.00;;
76119;SDS011;64852;48.092;-1.640;2023-09-19T19:58:45;3.20;;;3.00;;
76119;SDS011;64852;48.092;-1.640;2023-09-19T20:01:12;2.90;;;2.70;;
76119;SDS011;64852;48.092;-1.640;2023-09-19T20:03:39;3.42;;;3.22;;
76119;SDS011;64852;48.092;-1.640;2023-09-19T20:06:04;3.67;;;3.47;;
76119;SDS011;64852;48.092;-1.640;2023-09-19T20:08:31;3.10;;;2.90;;
76119;SDS011;64852;48.092;-1.640;2023-09-19T20:11:00;4.10;;;3.35;;
76119;SDS011;64852;48.092;-1.640;2023-09-19T20:13:31;3.47;;;3.28;;
76119;SDS011;64852;48.092;-1.640;2023-09-19T20:15:57;2.50;;;2.40;;
76119;SDS011;64852;48.092;-1.640;2023-09-19T20:18:24;3.30;;;3.00;;
76119;SDS011;64852;48.092;-1.640;2023-09-19T20:20:51;4.03;;;3.83;;
76119;SDS011;64852;48.092;-1.640;2023-09-19T20:23:17;3.00;;;2.90;;
76119;SDS011;64852;48.092;-1.640;2023-09-19T20:25:44;3.33;;;3.13;;
76119;SDS011;64852;48.092;-1.640;2023-09-19T20:28:10;3.30;;;3.10;;
76119;SDS011;64852;48.092;-1.640;2023-09-19T20:30:39;3.15;;;3.00;;
76119;SDS011;64852;48.092;-1.640;2023-09-19T20:33:08;4.60;;;4.30;;
76119;SDS011;64852;48.092;-1.640;2023-09-19T20:35:37;6.25;;;3.47;;
76119;SDS011;64852;48.092;-1.640;2023-09-19T20:38:04;3.30;;;3.10;;
76119;SDS011;64852;48.092;-1.640;2023-09-19T20:40:30;3.10;;;2.90;;
76119;SDS011;64852;48.092;-1.640;2023-09-19T20:42:56;2.50;;;2.40;;
76119;SDS011;64852;48.092;-1.640;2023-09-19T20:45:23;3.83;;;3.40;;
76119;SDS011;64852;48.092;-1.640;2023-09-19T20:47:49;2.70;;;2.60;;
76119;SDS011;64852;48.092;-1.640;2023-09-19T20:50:17;4.65;;;4.25;;
76119;SDS011;64852;48.092;-1.640;2023-09-19T20:52:43;4.30;;;4.00;;
76119;SDS011;64852;48.092;-1.640;2023-09-19T20:55:09;4.63;;;4.33;;
76119;SDS011;64852;48.092;-1.640;2023-09-19T20:57:35;5.00;;;4.60;;
76119;SDS011;64852;48.092;-1.640;2023-09-19T21:00:02;4.80;;;4.50;;
76119;SDS011;64852;48.092;-1.640;2023-09-19T21:02:28;3.63;;;3.37;;
76119;SDS011;64852;48.092;-1.640;2023-09-19T21:04:54;4.50;;;4.18;;
76119;SDS011;64852;48.092;-1.640;2023-09-19T21:07:20;4.00;;;3.80;;
76119;SDS011;64852;48.092;-1.640;2023-09-19T21:09:46;3.92;;;3.63;;
76119;SDS011;64852;48.092;-1.640;2023-09-19T21:12:12;12.20;;;4.20;;
76119;SDS011;64852;48.092;-1.640;2023-09-19T21:26:51;4.22;;;4.03;;
76119;SDS011;64852;48.092;-1.640;2023-09-19T21:48:47;4.38;;;4.18;;
76119;SDS011;64852;48.092;-1.640;2023-09-19T22:03:32;10.82;;;10.25;;
76119;SDS011;64852;48.092;-1.640;2023-09-19T22:20:52;8.38;;;7.97;;
76119;SDS011;64852;48.092;-1.640;2023-09-19T22:23:24;10.35;;;9.65;;
76119;SDS011;64852;48.092;-1.640;2023-09-19T22:25:57;10.15;;;9.65;;
76119;SDS011;64852;48.092;-1.640;2023-09-19T22:28:30;10.82;;;10.05;;
76119;SDS011;64852;48.092;-1.640;2023-09-19T22:31:00;11.15;;;10.55;;
76119;SDS011;64852;48.092;-1.640;2023-09-19T22:36:01;12.25;;;11.65;;
76119;SDS011;64852;48.092;-1.640;2023-09-19T22:40:54;12.63;;;11.93;;
76119;SDS011;64852;48.092;-1.640;2023-09-19T22:43:20;22.30;;;13.03;;
76119;SDS011;64852;48.092;-1.640;2023-09-19T22:45:52;9.65;;;9.15;;
76119;SDS011;64852;48.092;-1.640;2023-09-19T22:50:50;12.65;;;11.95;;
76119;SDS011;64852;48.092;-1.640;2023-09-19T22:55:48;11.60;;;11.00;;
76119;SDS011;64852;48.092;-1.640;2023-09-19T22:58:14;11.00;;;9.63;;
76119;SDS011;64852;48.092;-1.640;2023-09-19T23:00:40;10.70;;;9.82;;
76119;SDS011;64852;48.092;-1.640;2023-09-19T23:03:10;11.88;;;11.27;;
76119;SDS011;64852;48.092;-1.640;2023-09-19T23:05:39;13.88;;;13.18;;
76119;SDS011;64852;48.092;-1.640;2023-09-19T23:08:07;11.20;;;10.60;;
76119;SDS011;64852;48.092;-1.640;2023-09-19T23:13:10;10.05;;;9.55;;
76119;SDS011;64852;48.092;-1.640;2023-09-19T23:18:09;10.02;;;9.50;;
76119;SDS011;64852;48.092;-1.640;2023-09-19T23:28:01;18.55;;;17.55;;
76119;SDS011;64852;48.092;-1.640;2023-09-19T23:30:29;26.52;;;14.52;;
76119;SDS011;64852;48.092;-1.640;2023-09-19T23:32:58;15.65;;;14.75;;
76119;SDS011;64852;48.092;-1.640;2023-09-19T23:35:24;15.10;;;14.20;;
76119;SDS011;64852;48.092;-1.640;2023-09-19T23:37:52;15.23;;;14.43;;
76119;SDS011;64852;48.092;-1.640;2023-09-19T23:40:22;15.65;;;14.75;;
76119;SDS011;64852;48.092;-1.640;2023-09-19T23:42:49;17.20;;;16.30;;
76119;SDS011;64852;48.092;-1.640;2023-09-19T23:45:15;12.17;;;11.57;;
76119;SDS011;64852;48.092;-1.640;2023-09-19T23:47:48;16.95;;;16.05;;
76119;SDS011;64852;48.092;-1.640;2023-09-19T23:55:07;14.45;;;13.70;;
